sensor_id;sensor_type;location;lat;lon;timestamp;P1;durP1;ratioP1;P2;durP2;ratioP2
22308;SDS011;11322;50.858;-1.778;2024-02-26T00:00:33;10.9;;;7.7;;
22308;SDS011;11322;50.858;-1.778;2024-02-26T00:05:33;8.9;;;5.6;;
22308;SDS011;11322;50.858;-1.778;2024-02-26T00:10:33;8.4;;;5.25;;
22308;SDS011;11322;50.858;-1.778;2024-02-26T00:15:33;11.95;;;6.4;;
22308;SDS011;11322;50.858;-1.778;2024-02-26T00:20:33;10.6;;;6.1;;
22308;SDS011;11322;50.858;-1.778;2024-02-26T00:25:33;10.4;;;6.6;;
22308;SDS011;11322;50.858;-1.778;2024-02-26T00:30:33;12.15;;;6.2;;
22308;SDS011;11322;50.858;-1.778;2024-02-26T00:35:33;7.5;;;4.75;;
22308;SDS011;11322;50.858;-1.778;2024-02-26T00:40:33;13.05;;;7.7;;
22308;SDS011;11322;50.858;-1.778;2024-02-26T00:45:33;10.3;;;5.5;;
22308;SDS011;11322;50.858;-1.778;2024-02-26T00:50:33;11.2;;;7.5;;
22308;SDS011;11322;50.858;-1.778;2024-02-26T00:55:33;9.9;;;6.6;;
22308;SDS011;11322;50.858;-1.778;2024-02-26T01:00:33;11.45;;;6.0;;
22308;SDS011;11322;50.858;-1.778;2024-02-26T01:05:33;13.45;;;6.45;;
22308;SDS011;11322;50.858;-1.778;2024-02-26T01:11:39;15.4;;;7.75;;
22308;SDS011;11322;50.858;-1.778;2024-02-26T01:15:33;12.25;;;6.9;;
22308;SDS011;11322;50.858;-1.778;2024-02-26T01:20:33;10.2;;;5.7;;
22308;SDS011;11322;50.858;-1.778;2024-02-26T01:25:33;14.3;;;6.05;;
22308;SDS011;11322;50.858;-1.778;2024-02-26T01:30:33;10.8;;;5.55;;
22308;SDS011;11322;50.858;-1.778;2024-02-26T01:35:33;10.65;;;6.6;;
22308;SDS011;11322;50.858;-1.778;2024-02-26T01:40:33;8.0;;;5.45;;
22308;SDS011;11322;50.858;-1.778;2024-02-26T01:45:33;11.8;;;6.6;;
22308;SDS011;11322;50.858;-1.778;2024-02-26T01:50:33;14.8;;;6.5;;
22308;SDS011;11322;50.858;-1.778;2024-02-26T01:55:33;14.15;;;7.5;;
22308;SDS011;11322;50.858;-1.778;2024-02-26T02:00:33;12.1;;;5.1;;
22308;SDS011;11322;50.858;-1.778;2024-02-26T02:05:33;13.85;;;8.65;;
22308;SDS011;11322;50.858;-1.778;2024-02-26T02:10:33;13.3;;;7.75;;
22308;SDS011;11322;50.858;-1.778;2024-02-26T02:15:33;15.1;;;7.95;;
22308;SDS011;11322;50.858;-1.778;2024-02-26T02:20:33;11.2;;;6.35;;
22308;SDS011;11322;50.858;-1.778;2024-02-26T02:25:33;12.65;;;6.2;;
22308;SDS011;11322;50.858;-1.778;2024-02-26T02:30:33;13.25;;;7.0;;
22308;SDS011;11322;50.858;-1.778;2024-02-26T02:35:33;11.45;;;6.25;;
22308;SDS011;11322;50.858;-1.778;2024-02-26T02:40:33;11.8;;;5.7;;
22308;SDS011;11322;50.858;-1.778;2024-02-26T02:45:33;11.9;;;6.5;;
22308;SDS011;11322;50.858;-1.778;2024-02-26T02:50:33;13.45;;;5.25;;
22308;SDS011;11322;50.858;-1.778;2024-02-26T02:55:33;8.4;;;4.85;;
22308;SDS011;11322;50.858;-1.778;2024-02-26T03:00:33;8.3;;;4.55;;
22308;SDS011;11322;50.858;-1.778;2024-02-26T03:05:33;12.35;;;5.4;;
22308;SDS011;11322;50.858;-1.778;2024-02-26T03:10:33;18.7;;;4.3;;
22308;SDS011;11322;50.858;-1.778;2024-02-26T03:15:33;8.75;;;3.4;;
22308;SDS011;11322;50.858;-1.778;2024-02-26T03:20:33;9.35;;;5.1;;
22308;SDS011;11322;50.858;-1.778;2024-02-26T03:25:33;9.15;;;3.95;;
22308;SDS011;11322;50.858;-1.778;2024-02-26T03:30:33;9.8;;;3.8;;
22308;SDS011;11322;50.858;-1.778;2024-02-26T03:35:33;9.6;;;4.2;;
22308;SDS011;11322;50.858;-1.778;2024-02-26T03:40:33;9.4;;;5.2;;
22308;SDS011;11322;50.858;-1.778;2024-02-26T03:45:33;10.0;;;4.5;;
22308;SDS011;11322;50.858;-1.778;2024-02-26T03:50:33;7.9;;;3.4;;
22308;SDS011;11322;50.858;-1.778;2024-02-26T03:55:33;7.55;;;3.75;;
22308;SDS011;11322;50.858;-1.778;2024-02-26T04:00:33;9.55;;;3.9;;
22308;SDS011;11322;50.858;-1.778;2024-02-26T04:05:33;6.95;;;3.65;;
22308;SDS011;11322;50.858;-1.778;2024-02-26T04:10:33;5.25;;;2.0;;
22308;SDS011;11322;50.858;-1.778;2024-02-26T04:15:33;10.85;;;3.3;;
22308;SDS011;11322;50.858;-1.778;2024-02-26T04:20:33;5.55;;;3.0;;
22308;SDS011;11322;50.858;-1.778;2024-02-26T04:25:33;9.25;;;3.3;;
22308;SDS011;11322;50.858;-1.778;2024-02-26T04:30:33;5.95;;;3.0;;
22308;SDS011;11322;50.858;-1.778;2024-02-26T04:35:33;4.0;;;2.0;;
22308;SDS011;11322;50.858;-1.778;2024-02-26T04:40:33;5.1;;;2.65;;
22308;SDS011;11322;50.858;-1.778;2024-02-26T04:45:33;7.1;;;2.55;;
22308;SDS011;11322;50.858;-1.778;2024-02-26T04:50:33;6.4;;;2.4;;
22308;SDS011;11322;50.858;-1.778;2024-02-26T04:55:33;5.4;;;2.5;;
22308;SDS011;11322;50.858;-1.778;2024-02-26T05:00:33;6.2;;;2.0;;
22308;SDS011;11322;50.858;-1.778;2024-02-26T05:05:33;7.55;;;2.7;;
22308;SDS011;11322;50.858;-1.778;2024-02-26T05:10:33;8.35;;;2.3;;
22308;SDS011;11322;50.858;-1.778;2024-02-26T05:15:33;5.5;;;2.5;;
22308;SDS011;11322;50.858;-1.778;2024-02-26T05:20:33;6.1;;;2.65;;
22308;SDS011;11322;50.858;-1.778;2024-02-26T05:25:33;4.75;;;2.1;;
22308;SDS011;11322;50.858;-1.778;2024-02-26T05:30:33;7.95;;;2.7;;
22308;SDS011;11322;50.858;-1.778;2024-02-26T05:35:33;8.0;;;2.45;;
22308;SDS011;11322;50.858;-1.778;2024-02-26T05:40:33;6.75;;;2.4;;
22308;SDS011;11322;50.858;-1.778;2024-02-26T05:45:33;7.25;;;2.25;;
22308;SDS011;11322;50.858;-1.778;2024-02-26T05:50:33;5.4;;;2.0;;
22308;SDS011;11322;50.858;-1.778;2024-02-26T05:55:33;6.05;;;1.9;;
22308;SDS011;11322;50.858;-1.778;2024-02-26T06:00:33;4.2;;;1.95;;
22308;SDS011;11322;50.858;-1.778;2024-02-26T06:05:33;7.65;;;2.0;;
22308;SDS011;11322;50.858;-1.778;2024-02-26T06:10:33;6.55;;;2.15;;
22308;SDS011;11322;50.858;-1.778;2024-02-26T06:15:33;9.8;;;1.6;;
22308;SDS011;11322;50.858;-1.778;2024-02-26T06:20:33;3.25;;;1.8;;
22308;SDS011;11322;50.858;-1.778;2024-02-26T06:25:33;11.75;;;1.85;;
22308;SDS011;11322;50.858;-1.778;2024-02-26T06:30:33;4.9;;;1.6;;
22308;SDS011;11322;50.858;-1.778;2024-02-26T06:35:33;5.7;;;1.8;;
22308;SDS011;11322;50.858;-1.778;2024-02-26T06:40:33;5.05;;;1.7;;
22308;SDS011;11322;50.858;-1.778;2024-02-26T06:45:33;5.7;;;1.4;;
22308;SDS011;11322;50.858;-1.778;2024-02-26T06:50:33;7.95;;;1.3;;
22308;SDS011;11322;50.858;-1.778;2024-02-26T06:55:33;4.75;;;1.1;;
22308;SDS011;11322;50.858;-1.778;2024-02-26T07:00:33;6.05;;;1.5;;
22308;SDS011;11322;50.858;-1.778;2024-02-26T07:05:33;5.55;;;1.3;;
22308;SDS011;11322;50.858;-1.778;2024-02-26T07:10:33;5.05;;;1.4;;
22308;SDS011;11322;50.858;-1.778;2024-02-26T07:15:34;5.45;;;1.65;;
22308;SDS011;11322;50.858;-1.778;2024-02-26T07:20:33;5.05;;;1.25;;
22308;SDS011;11322;50.858;-1.778;2024-02-26T07:25:40;5.5;;;1.3;;
22308;SDS011;11322;50.858;-1.778;2024-02-26T07:30:33;7.2;;;1.5;;
22308;SDS011;11322;50.858;-1.778;2024-02-26T07:35:33;4.65;;;1.1;;
22308;SDS011;11322;50.858;-1.778;2024-02-26T07:40:33;7.9;;;2.1;;
22308;SDS011;11322;50.858;-1.778;2024-02-26T07:45:33;3.4;;;1.6;;
22308;SDS011;11322;50.858;-1.778;2024-02-26T07:50:33;3.7;;;1.3;;
22308;SDS011;11322;50.858;-1.778;2024-02-26T07:55:33;5.5;;;1.35;;
22308;SDS011;11322;50.858;-1.778;2024-02-26T08:00:33;3.65;;;1.5;;
22308;SDS011;11322;50.858;-1.778;2024-02-26T08:05:33;6.3;;;1.95;;
22308;SDS011;11322;50.858;-1.778;2024-02-26T08:10:33;3.0;;;1.4;;
22308;SDS011;11322;50.858;-1.778;2024-02-26T08:15:33;3.3;;;1.2;;
22308;SDS011;11322;50.858;-1.778;2024-02-26T08:20:33;5.8;;;1.35;;
22308;SDS011;11322;50.858;-1.778;2024-02-26T08:25:33;2.85;;;0.85;;
22308;SDS011;11322;50.858;-1.778;2024-02-26T08:30:33;4.55;;;1.05;;
22308;SDS011;11322;50.858;-1.778;2024-02-26T08:35:33;4.5;;;0.95;;
22308;SDS011;11322;50.858;-1.778;2024-02-26T08:40:33;6.95;;;1.5;;
22308;SDS011;11322;50.858;-1.778;2024-02-26T08:45:33;1.9;;;0.9;;
22308;SDS011;11322;50.858;-1.778;2024-02-26T08:50:33;2.95;;;1.0;;
22308;SDS011;11322;50.858;-1.778;2024-02-26T08:55:33;2.9;;;0.85;;
22308;SDS011;11322;50.858;-1.778;2024-02-26T09:00:33;2.25;;;0.85;;
22308;SDS011;11322;50.858;-1.778;2024-02-26T09:05:33;4.2;;;0.8;;
22308;SDS011;11322;50.858;-1.778;2024-02-26T09:10:33;3.1;;;1.2;;
22308;SDS011;11322;50.858;-1.778;2024-02-26T09:15:33;1.85;;;0.6;;
22308;SDS011;11322;50.858;-1.778;2024-02-26T09:20:33;3.65;;;0.7;;
22308;SDS011;11322;50.858;-1.778;2024-02-26T09:25:33;5.05;;;1.0;;
22308;SDS011;11322;50.858;-1.778;2024-02-26T09:30:33;4.95;;;1.0;;
22308;SDS011;11322;50.858;-1.778;2024-02-26T09:35:33;7.3;;;1.1;;
22308;SDS011;11322;50.858;-1.778;2024-02-26T09:40:33;3.9;;;1.0;;
22308;SDS011;11322;50.858;-1.778;2024-02-26T09:45:33;4.15;;;1.1;;
22308;SDS011;11322;50.858;-1.778;2024-02-26T09:50:33;3.6;;;1.0;;
22308;SDS011;11322;50.858;-1.778;2024-02-26T09:55:33;5.8;;;1.1;;
22308;SDS011;11322;50.858;-1.778;2024-02-26T10:00:34;7.6;;;1.3;;
22308;SDS011;11322;50.858;-1.778;2024-02-26T10:05:33;4.15;;;1.0;;
22308;SDS011;11322;50.858;-1.778;2024-02-26T10:10:33;5.05;;;1.0;;
22308;SDS011;11322;50.858;-1.778;2024-02-26T10:15:33;1.65;;;0.8;;
22308;SDS011;11322;50.858;-1.778;2024-02-26T10:20:33;4.25;;;1.1;;
22308;SDS011;11322;50.858;-1.778;2024-02-26T10:25:33;3.6;;;1.05;;
22308;SDS011;11322;50.858;-1.778;2024-02-26T10:30:36;3.65;;;1.1;;
22308;SDS011;11322;50.858;-1.778;2024-02-26T10:35:33;3.55;;;1.3;;
22308;SDS011;11322;50.858;-1.778;2024-02-26T10:40:33;3.7;;;0.95;;
22308;SDS011;11322;50.858;-1.778;2024-02-26T10:45:33;3.65;;;0.95;;
22308;SDS011;11322;50.858;-1.778;2024-02-26T10:50:33;4.2;;;1.1;;
22308;SDS011;11322;50.858;-1.778;2024-02-26T10:55:33;3.35;;;1.25;;
22308;SDS011;11322;50.858;-1.778;2024-02-26T11:00:33;2.05;;;0.9;;
22308;SDS011;11322;50.858;-1.778;2024-02-26T11:05:33;1.55;;;1.2;;
22308;SDS011;11322;50.858;-1.778;2024-02-26T11:10:33;5.35;;;1.15;;
22308;SDS011;11322;50.858;-1.778;2024-02-26T11:15:33;8.75;;;1.3;;
22308;SDS011;11322;50.858;-1.778;2024-02-26T11:20:33;4.4;;;1.0;;
22308;SDS011;11322;50.858;-1.778;2024-02-26T11:25:33;5.15;;;1.1;;
22308;SDS011;11322;50.858;-1.778;2024-02-26T11:30:38;3.1;;;0.9;;
22308;SDS011;11322;50.858;-1.778;2024-02-26T11:35:33;5.35;;;1.6;;
22308;SDS011;11322;50.858;-1.778;2024-02-26T11:40:33;2.9;;;0.95;;
22308;SDS011;11322;50.858;-1.778;2024-02-26T11:45:49;2.95;;;0.85;;
22308;SDS011;11322;50.858;-1.778;2024-02-26T11:50:34;6.25;;;0.85;;
22308;SDS011;11322;50.858;-1.778;2024-02-26T11:55:33;3.7;;;1.3;;
22308;SDS011;11322;50.858;-1.778;2024-02-26T12:00:33;4.65;;;1.0;;
22308;SDS011;11322;50.858;-1.778;2024-02-26T12:05:34;5.9;;;1.2;;
22308;SDS011;11322;50.858;-1.778;2024-02-26T12:11:42;4.5;;;1.1;;
22308;SDS011;11322;50.858;-1.778;2024-02-26T12:15:33;3.0;;;1.0;;
22308;SDS011;11322;50.858;-1.778;2024-02-26T12:20:33;4.65;;;1.05;;
22308;SDS011;11322;50.858;-1.778;2024-02-26T12:25:33;5.7;;;1.65;;
22308;SDS011;11322;50.858;-1.778;2024-02-26T12:30:33;4.15;;;1.45;;
22308;SDS011;11322;50.858;-1.778;2024-02-26T12:35:33;2.35;;;1.0;;
22308;SDS011;11322;50.858;-1.778;2024-02-26T12:40:33;3.1;;;0.9;;
22308;SDS011;11322;50.858;-1.778;2024-02-26T12:45:33;2.95;;;0.9;;
22308;SDS011;11322;50.858;-1.778;2024-02-26T12:50:33;4.4;;;0.9;;
22308;SDS011;11322;50.858;-1.778;2024-02-26T12:55:33;4.45;;;0.95;;
22308;SDS011;11322;50.858;-1.778;2024-02-26T13:00:33;3.0;;;0.9;;
22308;SDS011;11322;50.858;-1.778;2024-02-26T13:05:33;3.2;;;1.0;;
22308;SDS011;11322;50.858;-1.778;2024-02-26T13:10:33;3.1;;;0.8;;
22308;SDS011;11322;50.858;-1.778;2024-02-26T13:15:33;1.55;;;0.65;;
22308;SDS011;11322;50.858;-1.778;2024-02-26T13:20:33;5.5;;;1.5;;
22308;SDS011;11322;50.858;-1.778;2024-02-26T13:25:33;4.7;;;1.0;;
22308;SDS011;11322;50.858;-1.778;2024-02-26T13:30:33;2.15;;;0.85;;
22308;SDS011;11322;50.858;-1.778;2024-02-26T13:35:33;3.0;;;1.0;;
22308;SDS011;11322;50.858;-1.778;2024-02-26T13:40:33;4.6;;;1.1;;
22308;SDS011;11322;50.858;-1.778;2024-02-26T13:45:34;3.5;;;1.3;;
22308;SDS011;11322;50.858;-1.778;2024-02-26T13:50:33;2.7;;;0.8;;
22308;SDS011;11322;50.858;-1.778;2024-02-26T13:55:33;4.95;;;0.85;;
22308;SDS011;11322;50.858;-1.778;2024-02-26T14:00:33;5.9;;;1.1;;
22308;SDS011;11322;50.858;-1.778;2024-02-26T14:05:33;3.8;;;1.0;;
22308;SDS011;11322;50.858;-1.778;2024-02-26T14:10:33;5.1;;;1.1;;
22308;SDS011;11322;50.858;-1.778;2024-02-26T14:15:33;2.85;;;0.9;;
22308;SDS011;11322;50.858;-1.778;2024-02-26T14:20:33;3.0;;;0.7;;
22308;SDS011;11322;50.858;-1.778;2024-02-26T14:25:33;3.75;;;0.8;;
22308;SDS011;11322;50.858;-1.778;2024-02-26T14:30:33;3.2;;;0.75;;
22308;SDS011;11322;50.858;-1.778;2024-02-26T14:35:33;3.85;;;0.95;;
22308;SDS011;11322;50.858;-1.778;2024-02-26T14:40:33;3.7;;;1.05;;
22308;SDS011;11322;50.858;-1.778;2024-02-26T14:45:33;1.8;;;0.6;;
22308;SDS011;11322;50.858;-1.778;2024-02-26T14:50:33;2.75;;;0.7;;
22308;SDS011;11322;50.858;-1.778;2024-02-26T14:55:33;3.55;;;0.75;;
22308;SDS011;11322;50.858;-1.778;2024-02-26T15:00:33;2.7;;;1.0;;
22308;SDS011;11322;50.858;-1.778;2024-02-26T15:05:33;4.7;;;0.95;;
22308;SDS011;11322;50.858;-1.778;2024-02-26T15:10:33;1.2;;;0.4;;
22308;SDS011;11322;50.858;-1.778;2024-02-26T15:15:33;1.1;;;0.4;;
22308;SDS011;11322;50.858;-1.778;2024-02-26T15:20:33;2.6;;;0.8;;
22308;SDS011;11322;50.858;-1.778;2024-02-26T15:25:33;1.55;;;0.6;;
22308;SDS011;11322;50.858;-1.778;2024-02-26T15:30:33;4.45;;;0.9;;
22308;SDS011;11322;50.858;-1.778;2024-02-26T15:35:33;5.8;;;1.1;;
22308;SDS011;11322;50.858;-1.778;2024-02-26T15:40:33;3.4;;;0.9;;
22308;SDS011;11322;50.858;-1.778;2024-02-26T15:45:33;4.4;;;0.7;;
22308;SDS011;11322;50.858;-1.778;2024-02-26T15:50:33;0.95;;;0.5;;
22308;SDS011;11322;50.858;-1.778;2024-02-26T15:55:33;3.4;;;0.8;;
22308;SDS011;11322;50.858;-1.778;2024-02-26T16:00:33;7.55;;;0.8;;
22308;SDS011;11322;50.858;-1.778;2024-02-26T16:05:33;1.9;;;0.7;;
22308;SDS011;11322;50.858;-1.778;2024-02-26T16:10:33;4.8;;;0.8;;
22308;SDS011;11322;50.858;-1.778;2024-02-26T16:15:33;4.75;;;0.95;;
22308;SDS011;11322;50.858;-1.778;2024-02-26T16:20:33;3.35;;;0.75;;
22308;SDS011;11322;50.858;-1.778;2024-02-26T16:25:33;3.3;;;0.5;;
22308;SDS011;11322;50.858;-1.778;2024-02-26T16:30:33;3.35;;;0.75;;
22308;SDS011;11322;50.858;-1.778;2024-02-26T16:35:33;5.35;;;1.1;;
22308;SDS011;11322;50.858;-1.778;2024-02-26T16:40:33;2.1;;;0.7;;
22308;SDS011;11322;50.858;-1.778;2024-02-26T16:45:33;4.35;;;0.8;;
22308;SDS011;11322;50.858;-1.778;2024-02-26T16:50:33;5.8;;;1.3;;
22308;SDS011;11322;50.858;-1.778;2024-02-26T16:55:33;3.35;;;0.8;;
22308;SDS011;11322;50.858;-1.778;2024-02-26T17:00:33;4.3;;;1.05;;
22308;SDS011;11322;50.858;-1.778;2024-02-26T17:05:33;3.5;;;1.0;;
22308;SDS011;11322;50.858;-1.778;2024-02-26T17:10:33;6.75;;;1.15;;
22308;SDS011;11322;50.858;-1.778;2024-02-26T17:15:33;10.1;;;1.1;;
22308;SDS011;11322;50.858;-1.778;2024-02-26T17:20:33;4.8;;;0.95;;
22308;SDS011;11322;50.858;-1.778;2024-02-26T17:25:33;3.95;;;1.0;;
22308;SDS011;11322;50.858;-1.778;2024-02-26T17:30:33;5.5;;;1.2;;
22308;SDS011;11322;50.858;-1.778;2024-02-26T17:35:33;3.9;;;0.75;;
22308;SDS011;11322;50.858;-1.778;2024-02-26T17:40:33;2.3;;;0.8;;
22308;SDS011;11322;50.858;-1.778;2024-02-26T17:45:33;3.45;;;0.8;;
22308;SDS011;11322;50.858;-1.778;2024-02-26T17:50:33;5.65;;;1.5;;
22308;SDS011;11322;50.858;-1.778;2024-02-26T17:55:33;3.75;;;1.0;;
22308;SDS011;11322;50.858;-1.778;2024-02-26T18:00:33;1.0;;;0.85;;
22308;SDS011;11322;50.858;-1.778;2024-02-26T18:05:33;6.05;;;1.05;;
22308;SDS011;11322;50.858;-1.778;2024-02-26T18:10:33;2.75;;;0.75;;
22308;SDS011;11322;50.858;-1.778;2024-02-26T18:15:33;4.25;;;0.9;;
22308;SDS011;11322;50.858;-1.778;2024-02-26T18:20:33;2.65;;;0.6;;
22308;SDS011;11322;50.858;-1.778;2024-02-26T18:25:33;0.75;;;0.5;;
22308;SDS011;11322;50.858;-1.778;2024-02-26T18:30:33;1.95;;;0.8;;
22308;SDS011;11322;50.858;-1.778;2024-02-26T18:35:33;5.1;;;1.0;;
22308;SDS011;11322;50.858;-1.778;2024-02-26T18:40:33;3.85;;;1.1;;
22308;SDS011;11322;50.858;-1.778;2024-02-26T18:45:33;8.35;;;0.8;;
22308;SDS011;11322;50.858;-1.778;2024-02-26T18:50:33;3.9;;;0.9;;
22308;SDS011;11322;50.858;-1.778;2024-02-26T18:55:33;3.65;;;0.8;;
22308;SDS011;11322;50.858;-1.778;2024-02-26T19:00:33;5.65;;;2.1;;
22308;SDS011;11322;50.858;-1.778;2024-02-26T19:05:33;2.8;;;0.7;;
22308;SDS011;11322;50.858;-1.778;2024-02-26T19:10:33;2.85;;;1.05;;
22308;SDS011;11322;50.858;-1.778;2024-02-26T19:15:33;1.9;;;1.0;;
22308;SDS011;11322;50.858;-1.778;2024-02-26T19:20:33;5.3;;;1.2;;
22308;SDS011;11322;50.858;-1.778;2024-02-26T19:25:33;2.5;;;0.85;;
22308;SDS011;11322;50.858;-1.778;2024-02-26T19:30:33;3.1;;;0.85;;
22308;SDS011;11322;50.858;-1.778;2024-02-26T19:35:33;3.45;;;1.1;;
22308;SDS011;11322;50.858;-1.778;2024-02-26T19:40:33;4.35;;;1.25;;
22308;SDS011;11322;50.858;-1.778;2024-02-26T19:45:33;1.7;;;0.65;;
22308;SDS011;11322;50.858;-1.778;2024-02-26T19:50:33;3.8;;;0.8;;
22308;SDS011;11322;50.858;-1.778;2024-02-26T19:55:33;6.85;;;1.05;;
22308;SDS011;11322;50.858;-1.778;2024-02-26T20:00:33;3.55;;;1.3;;
22308;SDS011;11322;50.858;-1.778;2024-02-26T20:05:33;1.7;;;0.95;;
22308;SDS011;11322;50.858;-1.778;2024-02-26T20:10:33;3.05;;;0.7;;
22308;SDS011;11322;50.858;-1.778;2024-02-26T20:15:33;5.9;;;1.55;;
22308;SDS011;11322;50.858;-1.778;2024-02-26T20:20:33;6.4;;;1.85;;
22308;SDS011;11322;50.858;-1.778;2024-02-26T20:25:33;3.8;;;1.75;;
22308;SDS011;11322;50.858;-1.778;2024-02-26T20:30:33;5.9;;;1.55;;
22308;SDS011;11322;50.858;-1.778;2024-02-26T20:35:33;4.25;;;1.35;;
22308;SDS011;11322;50.858;-1.778;2024-02-26T20:40:33;3.25;;;2.65;;
22308;SDS011;11322;50.858;-1.778;2024-02-26T20:45:33;3.1;;;1.4;;
22308;SDS011;11322;50.858;-1.778;2024-02-26T20:50:33;7.35;;;1.7;;
22308;SDS011;11322;50.858;-1.778;2024-02-26T20:55:33;3.35;;;1.2;;
22308;SDS011;11322;50.858;-1.778;2024-02-26T21:00:33;1.7;;;1.25;;
22308;SDS011;11322;50.858;-1.778;2024-02-26T21:05:33;2.85;;;1.6;;
22308;SDS011;11322;50.858;-1.778;2024-02-26T21:10:33;4.25;;;1.55;;
22308;SDS011;11322;50.858;-1.778;2024-02-26T21:15:33;3.85;;;1.1;;
22308;SDS011;11322;50.858;-1.778;2024-02-26T21:20:33;3.95;;;1.3;;
22308;SDS011;11322;50.858;-1.778;2024-02-26T21:25:33;4.25;;;1.3;;
22308;SDS011;11322;50.858;-1.778;2024-02-26T21:30:33;7.3;;;1.7;;
22308;SDS011;11322;50.858;-1.778;2024-02-26T21:35:33;7.45;;;1.95;;
22308;SDS011;11322;50.858;-1.778;2024-02-26T21:40:33;3.45;;;1.15;;
22308;SDS011;11322;50.858;-1.778;2024-02-26T21:45:33;1.55;;;1.0;;
22308;SDS011;11322;50.858;-1.778;2024-02-26T21:50:33;4.3;;;1.2;;
22308;SDS011;11322;50.858;-1.778;2024-02-26T21:55:33;4.9;;;1.4;;
22308;SDS011;11322;50.858;-1.778;2024-02-26T22:00:33;6.45;;;1.8;;
22308;SDS011;11322;50.858;-1.778;2024-02-26T22:05:33;4.85;;;1.65;;
22308;SDS011;11322;50.858;-1.778;2024-02-26T22:10:33;3.95;;;1.55;;
22308;SDS011;11322;50.858;-1.778;2024-02-26T22:15:33;4.2;;;1.0;;
22308;SDS011;11322;50.858;-1.778;2024-02-26T22:20:33;3.5;;;1.35;;
22308;SDS011;11322;50.858;-1.778;2024-02-26T22:25:33;5.1;;;1.2;;
22308;SDS011;11322;50.858;-1.778;2024-02-26T22:30:33;2.85;;;1.4;;
22308;SDS011;11322;50.858;-1.778;2024-02-26T22:35:33;2.1;;;1.0;;
22308;SDS011;11322;50.858;-1.778;2024-02-26T22:40:33;4.9;;;1.15;;
22308;SDS011;11322;50.858;-1.778;2024-02-26T22:45:34;4.1;;;1.55;;
22308;SDS011;11322;50.858;-1.778;2024-02-26T22:50:33;2.6;;;1.5;;
22308;SDS011;11322;50.858;-1.778;2024-02-26T22:55:33;4.5;;;1.05;;
22308;SDS011;11322;50.858;-1.778;2024-02-26T23:00:33;4.0;;;0.9;;
22308;SDS011;11322;50.858;-1.778;2024-02-26T23:05:33;3.15;;;1.15;;
22308;SDS011;11322;50.858;-1.778;2024-02-26T23:10:33;4.65;;;1.5;;
22308;SDS011;11322;50.858;-1.778;2024-02-26T23:15:33;4.15;;;1.4;;
22308;SDS011;11322;50.858;-1.778;2024-02-26T23:20:33;4.65;;;1.45;;
22308;SDS011;11322;50.858;-1.778;2024-02-26T23:25:33;4.1;;;1.7;;
22308;SDS011;11322;50.858;-1.778;2024-02-26T23:30:33;8.3;;;1.4;;
22308;SDS011;11322;50.858;-1.778;2024-02-26T23:35:33;3.0;;;1.6;;
22308;SDS011;11322;50.858;-1.778;2024-02-26T23:40:33;4.3;;;2.25;;
22308;SDS011;11322;50.858;-1.778;2024-02-26T23:45:33;4.4;;;1.75;;
22308;SDS011;11322;50.858;-1.778;2024-02-26T23:50:33;8.9;;;2.2;;
22308;SDS011;11322;50.858;-1.778;2024-02-26T23:55:33;5.2;;;1.7;;
